Time;durP1;ratioP1;P1;durP2;ratioP2;P2;SDS_P1;SDS_P2;PMS_P1;PMS_P2;Temp;Humidity;BMP_temperature;BMP_pressure;BME280_temperature;BME280_humidity;BME280_pressure;Samples;Min_cycle;Max_cycle;Signal;HPM_P1;HPM_P2
2022/12/27 00:00:01;;;;;;;0.90;0.50;;;;;;;;;;5007588;28;20240;-85
2022/12/27 00:02:27;;;;;;;0.40;0.30;;;;;;;;;;5010864;28;20656;-86
2022/12/27 00:04:53;;;;;;;2.03;0.85;;;6.00;99.90;;;;;;5001320;28;20187;-85
2022/12/27 00:07:19;;;;;;;2.60;0.50;;;;;;;;;;5020626;28;20194;-85
2022/12/27 00:09:44;;;;;;;0.50;0.40;;;;;;;;;;5001443;28;20786;-85
2022/12/27 00:12:11;;;;;;;2.00;0.70;;;;;;;;;;5005381;28;20194;-85
2022/12/27 00:14:36;;;;;;;1.13;0.60;;;;;;;;;;4999333;28;20453;-85
2022/12/27 00:17:02;;;;;;;1.93;1.07;;;;;;;;;;5016349;28;20194;-85
2022/12/27 00:19:28;;;;;;;3.60;0.60;;;;;;;;;;5002782;28;20807;-85
2022/12/27 00:21:54;;;;;;;1.30;1.03;;;;;;;;;;4999309;28;20425;-85
2022/12/27 00:24:20;;;;;;;1.63;0.50;;;;;;;;;;4998861;28;20533;-84
2022/12/27 00:26:46;;;;;;;1.37;0.70;;;;;;;;;;4998794;28;22552;-84
2022/12/27 00:29:12;;;;;;;0.90;0.60;;;;;;;;;;4992936;28;20442;-85
2022/12/27 00:31:38;;;;;;;0.80;0.60;;;;;;;;;;4999409;28;21641;-85
2022/12/27 00:34:06;;;;;;;3.20;1.13;;;4.90;99.90;;;;;;5000982;28;20442;-85
2022/12/27 00:36:32;;;;;;;1.75;0.60;;;4.80;99.90;;;;;;5016091;28;20456;-85
2022/12/27 00:38:58;;;;;;;0.98;0.55;;;4.80;99.90;;;;;;4998985;28;20216;-85
2022/12/27 00:41:25;;;;;;;0.50;0.50;;;;;;;;;;5016783;28;20187;-85
2022/12/27 00:43:51;;;;;;;2.35;0.60;;;;;;;;;;5009986;28;20208;-85
2022/12/27 00:46:17;;;;;;;0.73;0.47;;;;;;;;;;5010816;28;20182;-85
2022/12/27 00:48:43;;;;;;;3.33;0.75;;;4.50;99.90;;;;;;5001256;28;20457;-85
2022/12/27 00:51:14;;;;;;;1.17;0.50;;;4.60;99.90;;;;;;4996232;28;20186;-84
2022/12/27 00:53:39;;;;;;;0.88;0.65;;;4.70;99.90;;;;;;5002895;28;21070;-84
2022/12/27 00:56:07;;;;;;;2.70;0.80;;;4.50;99.90;;;;;;4999134;28;20206;-85
2022/12/27 00:58:33;;;;;;;0.60;0.50;;;4.60;99.90;;;;;;5013937;28;20206;-85
2022/12/27 01:01:08;;;;;;;0.55;0.50;;;4.10;99.90;;;;;;5010912;28;20221;-84
2022/12/27 01:03:33;;;;;;;0.95;0.65;;;4.40;99.90;;;;;;4996151;28;20564;-84
2022/12/27 01:06:20;;;;;;;3.30;0.77;;;4.20;99.90;;;;;;5001013;28;20178;-85
2022/12/27 01:08:46;;;;;;;2.20;0.50;;;4.10;99.90;;;;;;5003558;28;20206;-85
2022/12/27 01:11:13;;;;;;;1.23;0.60;;;4.20;99.90;;;;;;5005791;28;20189;-85
2022/12/27 01:13:39;;;;;;;0.88;0.57;;;4.00;99.90;;;;;;5002874;28;20179;-85
2022/12/27 01:16:14;;;;;;;2.10;1.00;;;4.20;99.90;;;;;;5016556;28;20225;-84
2022/12/27 01:18:39;;;;;;;1.30;0.63;;;;;;;;;;4995440;28;20210;-85
2022/12/27 01:21:07;;;;;;;5.13;1.03;;;4.10;99.90;;;;;;5002416;28;20190;-85
2022/12/27 01:23:33;;;;;;;1.33;0.60;;;;;;;;;;5016356;28;21010;-84
2022/12/27 01:26:05;;;;;;;0.55;0.55;;;3.90;99.90;;;;;;5007622;28;20190;-84
2022/12/27 01:28:31;;;;;;;2.35;0.90;;;;;;;;;;5014260;28;20219;-85
2022/12/27 01:30:57;;;;;;;1.38;0.70;;;;;;;;;;5004055;28;20221;-85
2022/12/27 01:33:23;;;;;;;3.00;0.63;;;;;;;;;;5004837;28;20178;-85
2022/12/27 01:35:49;;;;;;;1.07;0.70;;;;;;;;;;5016469;28;20202;-85
2022/12/27 01:38:15;;;;;;;3.57;0.90;;;;;;;;;;5001574;28;20465;-85
2022/12/27 01:40:41;;;;;;;0.80;0.80;;;;;;;;;;5014234;28;20441;-85
2022/12/27 01:43:17;;;;;;;1.03;0.80;;;3.60;99.90;;;;;;4999265;28;20529;-84
2022/12/27 01:45:43;;;;;;;1.60;0.80;;;3.40;99.90;;;;;;5018375;28;20437;-85
2022/12/27 01:48:19;;;;;;;1.53;1.40;;;4.60;99.90;;;;;;5002625;28;20248;-84
2022/12/27 01:50:58;;;;;;;0.90;0.65;;;3.50;99.90;;;;;;5002280;28;20425;-83
2022/12/27 01:53:24;;;;;;;5.35;1.00;;;3.70;99.90;;;;;;5003419;28;20189;-84
2022/12/27 01:55:58;;;;;;;3.27;0.83;;;3.50;99.90;;;;;;5008177;28;20270;-83
2022/12/27 01:58:40;;;;;;;5.95;1.42;;;3.60;99.90;;;;;;5009241;28;20291;-85
2022/12/27 02:01:12;;;;;;;1.25;0.70;;;3.70;99.90;;;;;;5005589;28;20264;-85
2022/12/27 02:03:49;;;;;;;2.58;1.45;;;3.60;99.90;;;;;;5021189;28;20222;-84
2022/12/27 02:06:16;;;;;;;6.28;1.27;;;3.60;99.90;;;;;;5009794;28;20166;-85
2022/12/27 02:09:19;;;;;;;3.80;0.90;;;3.50;99.90;;;;;;5007862;28;20237;-85
2022/12/27 02:11:50;;;;;;;3.63;0.98;;;3.30;99.90;;;;;;5010128;28;20196;-85
2022/12/27 02:14:32;;;;;;;2.50;1.00;;;3.00;99.90;;;;;;5020806;28;20780;-85
2022/12/27 02:17:01;;;;;;;6.78;1.50;;;3.00;99.90;;;;;;5021605;28;20186;-84
2022/12/27 02:19:27;;;;;;;2.20;1.05;;;;;;;;;;5022080;28;20202;-87
2022/12/27 02:22:14;;;;;;;0.80;0.80;;;3.00;99.90;;;;;;5006179;28;20191;-86
2022/12/27 02:24:46;;;;;;;4.40;2.10;;;3.00;99.90;;;;;;5020927;28;20506;-86
2022/12/27 02:27:23;;;;;;;1.88;1.00;;;3.00;99.90;;;;;;5023780;28;20212;-84
2022/12/27 02:30:04;;;;;;;4.25;2.55;;;3.10;99.90;;;;;;5011921;28;20248;-84
2022/12/27 02:32:44;;;;;;;6.00;2.15;;;3.40;99.90;;;;;;5026486;28;20393;-86
2022/12/27 02:35:39;;;;;;;6.50;1.80;;;3.50;99.90;;;;;;5027403;28;20212;-83
2022/12/27 02:38:29;;;;;;;6.32;1.80;;;3.40;99.90;;;;;;5005141;28;20217;-85
2022/12/27 02:53:03;;;;;;;6.13;1.00;;;3.50;99.90;;;;;;5003587;28;20225;-83
2022/12/27 02:58:54;;;;;;;1.67;1.20;;;3.60;99.90;;;;;;5002881;28;20212;-83
2022/12/27 03:04:05;;;;;;;5.13;1.20;;;;;;;;;;4999356;28;20209;-83
2022/12/27 03:07:07;;;;;;;7.83;1.67;;;3.90;99.90;;;;;;4998641;28;20257;-83
2022/12/27 03:15:54;;;;;;;3.97;1.13;;;3.80;99.90;;;;;;5001197;28;20224;-83
2022/12/27 03:18:57;;;;;;;4.35;1.45;;;4.10;99.90;;;;;;4998718;28;20226;-82
2022/12/27 03:27:27;;;;;;;1.92;1.60;;;4.00;99.90;;;;;;4998136;28;20265;-83
2022/12/27 03:38:01;;;;;;;3.70;1.27;;;3.90;99.90;;;;;;5005263;28;20615;-83
2022/12/27 03:38:35;;;;;;;6.13;1.05;;;3.80;99.90;;;;;;5004195;28;20205;-83
2022/12/27 03:43:49;;;;;;;1.00;1.00;;;3.60;99.90;;;;;;5010305;28;20224;-84
2022/12/27 03:46:34;;;;;;;4.32;1.67;;;3.40;99.90;;;;;;5021242;28;20201;-83
2022/12/27 03:49:24;;;;;;;3.60;0.70;;;3.70;99.90;;;;;;5001379;28;20202;-83
2022/12/27 03:51:53;;;;;;;2.53;0.90;;;3.60;99.90;;;;;;5004965;28;20244;-84
2022/12/27 03:54:33;;;;;;;3.75;1.00;;;3.60;99.90;;;;;;5007295;28;20206;-82
2022/12/27 03:57:04;;;;;;;2.20;1.00;;;3.60;99.90;;;;;;5018311;28;21882;-83
2022/12/27 03:59:30;;;;;;;5.57;1.58;;;;;;;;;;5003535;28;20186;-83
2022/12/27 04:01:56;;;;;;;3.17;1.23;;;3.60;99.90;;;;;;5006047;28;20263;-83
2022/12/27 04:04:22;;;;;;;1.40;1.30;;;;;;;;;;5002969;28;20637;-82
2022/12/27 04:06:48;;;;;;;3.20;1.27;;;;;;;;;;5003165;28;20293;-84
2022/12/27 04:36:37;;;;;;;8.00;1.20;;;3.10;99.90;;;;;;5005621;28;20260;-83
2022/12/27 04:39:04;;;;;;;2.77;1.23;;;;;;;;;;5022510;28;20871;-83
2022/12/27 04:55:29;;;;;;;3.53;1.05;;;3.10;99.90;;;;;;5007022;28;20712;-82
2022/12/27 04:57:56;;;;;;;2.72;1.88;;;3.30;99.90;;;;;;5021869;28;20257;-83
2022/12/27 05:03:13;;;;;;;2.17;1.23;;;3.50;99.90;;;;;;5002859;28;20205;-84
2022/12/27 05:05:41;;;;;;;1.55;0.70;;;3.10;99.90;;;;;;5020699;28;20238;-84
2022/12/27 05:13:59;;;;;;;4.30;1.50;;;;;;;;;;5008117;28;20221;-84
2022/12/27 05:16:27;;;;;;;1.75;1.25;;;3.20;99.90;;;;;;5010040;28;20172;-83
2022/12/27 05:18:53;;;;;;;2.35;1.40;;;;;;;;;;5018833;28;20202;-84
2022/12/27 05:21:18;;;;;;;1.92;1.23;;;3.40;99.90;;;;;;5007767;28;20916;-82
2022/12/27 05:26:30;;;;;;;3.58;1.05;;;3.10;99.90;;;;;;5008500;28;20225;-82
2022/12/27 05:28:57;;;;;;;1.60;1.50;;;3.10;99.90;;;;;;5006459;28;20220;-81
2022/12/27 05:31:24;;;;;;;2.15;1.30;;;3.10;99.90;;;;;;5009212;28;20179;-81
2022/12/27 05:33:51;;;;;;;7.28;1.27;;;3.20;99.90;;;;;;5026638;28;20693;-80
2022/12/27 05:36:17;;;;;;;2.60;1.40;;;3.20;99.90;;;;;;5012748;28;20187;-85
2022/12/27 05:38:43;;;;;;;6.30;1.98;;;;;;;;;;5024901;28;20224;-85
2022/12/27 05:41:09;;;;;;;1.50;1.08;;;3.30;99.90;;;;;;5011231;28;20217;-86
2022/12/27 05:43:35;;;;;;;16.63;1.37;;;;;;;;;;5025983;28;20202;-86
2022/12/27 05:46:08;;;;;;;10.70;1.50;;;3.10;99.90;;;;;;5017398;28;20660;-86
2022/12/27 05:48:34;;;;;;;1.80;0.80;;;2.90;99.90;;;;;;5007529;28;20197;-85
2022/12/27 05:51:08;;;;;;;2.03;1.27;;;3.10;99.90;;;;;;5022071;28;20288;-87
2022/12/27 05:53:34;;;;;;;4.13;0.90;;;3.10;99.90;;;;;;5010152;28;20183;-86
2022/12/27 05:56:00;;;;;;;6.03;1.70;;;3.00;99.90;;;;;;5030537;28;20178;-86
2022/12/27 05:58:27;;;;;;;6.90;1.67;;;2.90;99.90;;;;;;5022732;28;20198;-86
2022/12/27 06:00:53;;;;;;;4.25;1.15;;;;;;;;;;5023644;28;20186;-86
2022/12/27 06:03:19;;;;;;;5.15;1.30;;;;;;;;;;5012753;28;20280;-86
2022/12/27 06:05:45;;;;;;;1.30;1.00;;;;;;;;;;5022528;28;21295;-87
2022/12/27 06:08:11;;;;;;;2.83;0.80;;;;;;;;;;5011799;28;20456;-86
2022/12/27 06:10:37;;;;;;;2.20;0.97;;;;;;;;;;5007784;28;20731;-86
2022/12/27 06:13:04;;;;;;;5.23;1.73;;;2.80;99.90;;;;;;5007365;28;20952;-87
2022/12/27 06:15:30;;;;;;;1.05;0.65;;;2.70;99.90;;;;;;5022009;28;20451;-86
2022/12/27 06:17:56;;;;;;;4.65;1.63;;;;;;;;;;5010188;28;20209;-86
2022/12/27 06:20:22;;;;;;;5.27;1.40;;;;;;;;;;5003251;28;20881;-86
2022/12/27 06:22:48;;;;;;;1.17;0.80;;;;;;;;;;5012111;28;20465;-86
2022/12/27 06:25:14;;;;;;;0.83;0.80;;;;;;;;;;5004974;28;20441;-86
2022/12/27 06:27:40;;;;;;;2.60;1.00;;;;;;;;;;5009449;28;20475;-86
2022/12/27 06:30:06;;;;;;;3.20;1.17;;;2.60;99.90;;;;;;5025804;28;20182;-86
2022/12/27 06:32:33;;;;;;;1.73;0.80;;;;;;;;;;5009073;28;20186;-87
2022/12/27 06:34:58;;;;;;;1.48;1.27;;;2.70;99.90;;;;;;5007045;28;20660;-86
2022/12/27 06:37:24;;;;;;;4.23;1.10;;;;;;;;;;5012029;28;20197;-85
2022/12/27 06:39:50;;;;;;;3.28;1.05;;;;;;;;;;5011694;28;20201;-83
2022/12/27 06:42:16;;;;;;;1.40;1.30;;;;;;;;;;5005365;28;20183;-83
2022/12/27 06:44:42;;;;;;;4.82;1.42;;;;;;;;;;5010567;28;20217;-83
2022/12/27 06:47:08;;;;;;;6.00;0.83;;;2.80;99.90;;;;;;5001267;28;20202;-82
2022/12/27 06:49:34;;;;;;;4.83;1.20;;;;;;;;;;5007655;28;20488;-83
2022/12/27 06:51:59;;;;;;;2.53;1.07;;;2.90;99.90;;;;;;5010811;28;20182;-83
2022/12/27 06:54:25;;;;;;;5.43;1.30;;;;;;;;;;5012311;28;20577;-83
2022/12/27 06:56:51;;;;;;;2.03;1.43;;;;;;;;;;5008710;28;20186;-83
2022/12/27 06:59:17;;;;;;;1.73;1.20;;;;;;;;;;5005580;28;20437;-83
2022/12/27 07:01:43;;;;;;;4.83;1.60;;;;;;;;;;5003966;28;20920;-85
2022/12/27 07:04:09;;;;;;;1.50;0.73;;;;;;;;;;5006976;28;20469;-83
2022/12/27 07:06:36;;;;;;;10.75;1.63;;;2.40;99.90;;;;;;5000988;28;20426;-83
2022/12/27 07:09:02;;;;;;;3.13;1.70;;;1.70;99.90;;;;;;5016156;28;20198;-83
2022/12/27 07:11:30;;;;;;;6.07;2.58;;;2.50;99.90;;;;;;5001661;28;20191;-83
2022/12/27 07:13:56;;;;;;;2.63;1.90;;;;;;;;;;5000231;28;20543;-83
2022/12/27 07:16:24;;;;;;;3.20;1.08;;;2.60;99.90;;;;;;4998822;28;20186;-83
2022/12/27 07:18:51;;;;;;;5.50;1.80;;;;;;;;;;5017117;28;20199;-83
2022/12/27 07:21:19;;;;;;;2.70;1.70;;;2.50;99.90;;;;;;5008013;28;20657;-83
2022/12/27 07:23:45;;;;;;;4.38;1.50;;;;;;;;;;5016574;28;20266;-82
2022/12/27 07:26:19;;;;;;;3.17;1.02;;;2.70;99.90;;;;;;5005070;28;20175;-82
2022/12/27 07:28:46;;;;;;;6.25;2.50;;;;;;;;;;5021201;28;20219;-82
2022/12/27 07:31:17;;;;;;;1.23;0.80;;;2.60;99.90;;;;;;5012094;28;20262;-82
2022/12/27 07:33:43;;;;;;;11.13;1.38;;;2.90;99.90;;;;;;5011355;28;20182;-84
2022/12/27 07:36:13;;;;;;;2.08;0.95;;;2.90;99.90;;;;;;5009834;28;20290;-84
2022/12/27 07:38:39;;;;;;;4.90;1.70;;;;;;;;;;5019604;28;20226;-84
2022/12/27 07:41:04;;;;;;;3.65;1.65;;;2.90;99.90;;;;;;5006150;28;20186;-84
2022/12/27 07:43:34;;;;;;;5.30;1.57;;;3.20;99.90;;;;;;5010239;28;20272;-83
2022/12/27 07:46:09;;;;;;;4.47;1.20;;;3.00;99.90;;;;;;5020498;28;20469;-84
2022/12/27 07:48:36;;;;;;;2.15;1.35;;;3.20;99.90;;;;;;5017844;28;20198;-84
2022/12/27 07:51:02;;;;;;;2.70;0.90;;;2.90;99.90;;;;;;5005488;28;20178;-84
2022/12/27 07:53:28;;;;;;;4.97;1.00;;;;;;;;;;5008789;28;20606;-83
2022/12/27 07:55:54;;;;;;;1.98;1.20;;;;;;;;;;5005324;28;20272;-84
2022/12/27 07:58:20;;;;;;;2.03;0.90;;;3.30;99.90;;;;;;5003285;28;20206;-84
2022/12/27 08:00:48;;;;;;;4.80;0.73;;;3.40;99.90;;;;;;5019778;28;20269;-83
2022/12/27 08:03:14;;;;;;;1.05;0.90;;;;;;;;;;5005828;28;20273;-84
2022/12/27 08:05:48;;;;;;;6.83;1.30;;;3.50;99.90;;;;;;5003901;28;20265;-85
2022/12/27 08:08:16;;;;;;;1.83;1.10;;;3.70;99.90;;;;;;5003861;28;20725;-85
2022/12/27 08:10:42;;;;;;;4.43;0.90;;;;;;;;;;5009946;28;20544;-86
2022/12/27 08:13:08;;;;;;;5.68;1.08;;;;;;;;;;5014068;28;20190;-85
2022/12/27 08:15:36;;;;;;;2.20;0.87;;;3.90;99.90;;;;;;5010490;28;20186;-85
2022/12/27 08:18:02;;;;;;;4.90;1.08;;;;;;;;;;5020321;28;20862;-85
2022/12/27 08:20:28;;;;;;;0.82;0.75;;;;;;;;;;5008767;28;20194;-86
2022/12/27 08:22:54;;;;;;;1.80;0.98;;;;;;;;;;5009086;28;20259;-85
2022/12/27 08:25:20;;;;;;;4.47;1.00;;;;;;;;;;5016859;28;20294;-83
2022/12/27 08:27:46;;;;;;;9.38;1.90;;;;;;;;;;5014781;28;20468;-84
2022/12/27 08:30:12;;;;;;;1.17;0.70;;;;;;;;;;5009064;28;20192;-84
2022/12/27 08:32:38;;;;;;;3.40;1.10;;;;;;;;;;5009623;28;20536;-83
2022/12/27 08:35:04;;;;;;;1.67;1.03;;;;;;;;;;5003742;28;20744;-84
2022/12/27 08:37:30;;;;;;;11.15;1.92;;;;;;;;;;5012437;28;20450;-85
2022/12/27 08:39:56;;;;;;;4.33;1.50;;;;;;;;;;5001428;28;20240;-84
2022/12/27 08:42:22;;;;;;;4.50;1.83;;;;;;;;;;5004251;28;20634;-84
2022/12/27 08:44:48;;;;;;;1.13;1.03;;;;;;;;;;5008493;28;20500;-84
2022/12/27 08:47:14;;;;;;;2.60;1.00;;;;;;;;;;5004351;28;20456;-85
2022/12/27 08:49:40;;;;;;;3.35;1.02;;;;;;;;;;5009878;28;20457;-83
2022/12/27 08:52:06;;;;;;;5.10;1.37;;;;;;;;;;5002401;28;20620;-85
2022/12/27 08:54:32;;;;;;;2.27;0.83;;;;;;;;;;5002118;28;20437;-85
2022/12/27 08:56:58;;;;;;;5.50;1.13;;;;;;;;;;5003426;28;20448;-84
2022/12/27 08:59:24;;;;;;;6.93;1.27;;;;;;;;;;5008249;28;20500;-86
2022/12/27 09:01:50;;;;;;;1.90;0.97;;;;;;;;;;5023062;28;20504;-84
2022/12/27 09:04:15;;;;;;;1.80;0.77;;;;;;;;;;5011908;28;20450;-85
2022/12/27 09:06:41;;;;;;;2.00;1.50;;;;;;;;;;5024345;28;20508;-84
2022/12/27 09:09:07;;;;;;;2.70;1.77;;;;;;;;;;5002713;28;20453;-85
2022/12/27 09:11:34;;;;;;;8.55;1.40;;;;;;;;;;4996208;28;20480;-85
2022/12/27 09:14:04;;;;;;;7.15;1.55;;;7.30;99.90;;;;;;4992603;28;20641;-84
2022/12/27 09:16:32;;;;;;;9.88;1.70;;;;;;;;;;5010019;28;20197;-84
2022/12/27 09:18:58;;;;;;;6.47;1.60;;;8.00;99.90;;;;;;4998596;28;20692;-86
2022/12/27 09:21:26;;;;;;;1.80;1.10;;;8.20;99.90;;;;;;5003461;28;20949;-86
2022/12/27 09:23:52;;;;;;;0.73;0.70;;;;;;;;;;5000300;28;20218;-85
2022/12/27 09:26:20;;;;;;;3.17;1.40;;;7.60;99.90;;;;;;5001133;28;20596;-85
2022/12/27 09:28:46;;;;;;;1.60;1.30;;;;;;;;;;5015195;28;20476;-85
2022/12/27 09:31:13;;;;;;;6.47;2.15;;;7.70;99.90;;;;;;4996300;28;20212;-86
2022/12/27 09:33:39;;;;;;;3.85;1.70;;;;;;;;;;5001142;28;20201;-86
2022/12/27 09:36:05;;;;;;;5.88;1.42;;;;;;;;;;5001630;28;20210;-85
2022/12/27 09:38:31;;;;;;;1.98;0.80;;;;;;;;;;5003273;28;20212;-86
2022/12/27 09:40:59;;;;;;;4.75;1.30;;;6.60;99.90;;;;;;4994245;28;20178;-85
2022/12/27 09:43:46;;;;;;;3.45;1.48;;;6.40;99.90;;;;;;5005559;28;20969;-85
2022/12/27 09:46:17;;;;;;;2.65;1.30;;;6.20;99.90;;;;;;5018832;28;20175;-84
2022/12/27 09:48:43;;;;;;;2.15;0.90;;;;;;;;;;4991709;28;20256;-85
2022/12/27 09:51:26;;;;;;;3.65;1.13;;;6.10;99.90;;;;;;4996651;28;20642;-86
2022/12/27 09:54:00;;;;;;;1.30;1.00;;;6.10;99.90;;;;;;4992746;28;21083;-85
2022/12/27 09:56:29;;;;;;;4.50;1.33;;;6.30;99.90;;;;;;5000904;28;20194;-85
2022/12/27 09:59:01;;;;;;;3.28;1.33;;;6.50;99.90;;;;;;5017283;28;20605;-85
2022/12/27 10:01:35;;;;;;;2.38;0.70;;;6.50;99.90;;;;;;5004429;28;20683;-85
2022/12/27 10:04:02;;;;;;;1.80;1.27;;;4.00;99.90;;;;;;5001517;28;20273;-85
2022/12/27 10:06:50;;;;;;;4.28;1.35;;;6.30;99.90;;;;;;5001406;28;20395;-85
2022/12/27 10:09:21;;;;;;;3.30;0.90;;;6.30;99.90;;;;;;5012696;28;20182;-85
2022/12/27 10:12:07;;;;;;;10.55;1.33;;;6.30;99.90;;;;;;5004537;28;20476;-85
2022/12/27 10:14:39;;;;;;;3.28;1.13;;;6.70;99.90;;;;;;5004330;28;20179;-85
2022/12/27 10:17:22;;;;;;;3.65;1.88;;;6.60;99.90;;;;;;5006811;28;20217;-86
2022/12/27 10:20:08;;;;;;;1.48;0.93;;;6.50;99.90;;;;;;5011261;28;20190;-85
2022/12/27 10:22:44;;;;;;;2.13;0.80;;;6.60;99.90;;;;;;5025186;28;20267;-85
2022/12/27 10:25:17;;;;;;;3.17;1.40;;;6.60;99.90;;;;;;5008767;28;20190;-85
2022/12/27 10:27:43;;;;;;;2.78;1.00;;;;;;;;;;5006718;28;20728;-84
2022/12/27 10:30:18;;;;;;;2.77;1.17;;;6.70;99.90;;;;;;5006672;28;20261;-85
2022/12/27 10:32:44;;;;;;;5.28;1.13;;;;;;;;;;5008680;28;20443;-86
2022/12/27 10:35:15;;;;;;;4.70;1.03;;;6.60;99.90;;;;;;5009960;28;20175;-84
2022/12/27 10:37:41;;;;;;;2.85;1.33;;;;;;;;;;5006356;28;20598;-84
2022/12/27 10:40:15;;;;;;;1.90;1.07;;;6.60;99.90;;;;;;5008165;28;20219;-85
2022/12/27 10:42:49;;;;;;;1.45;1.27;;;6.70;99.90;;;;;;5004917;28;20922;-85
2022/12/27 10:45:34;;;;;;;3.38;1.38;;;6.70;99.90;;;;;;5004788;28;20190;-86
2022/12/27 10:48:23;;;;;;;3.50;1.02;;;7.00;99.90;;;;;;5003296;28;20308;-84
2022/12/27 10:50:59;;;;;;;2.97;0.80;;;6.50;99.90;;;;;;5021606;28;20187;-85
2022/12/27 10:53:44;;;;;;;2.75;1.42;;;6.90;99.90;;;;;;4998119;28;20355;-85
2022/12/27 10:56:49;;;;;;;2.83;0.95;;;6.80;99.90;;;;;;4999766;28;20938;-85
2022/12/27 10:59:23;;;;;;;5.00;0.95;;;7.00;99.90;;;;;;4951379;28;20192;-84
2022/12/27 11:02:16;;;;;;;2.28;1.02;;;7.10;99.90;;;;;;4950758;28;20194;-86
2022/12/27 11:04:57;;;;;;;5.10;2.00;;;7.30;99.90;;;;;;4989140;28;20286;-86
2022/12/27 11:07:28;;;;;;;4.82;1.05;;;7.40;99.90;;;;;;5010909;28;20206;-86
2022/12/27 11:10:23;;;;;;;3.22;0.88;;;7.50;99.90;;;;;;5012603;28;20981;-85
2022/12/27 11:13:04;;;;;;;3.53;1.65;;;7.70;99.90;;;;;;5011216;28;20191;-85
2022/12/27 11:15:33;;;;;;;7.13;1.90;;;7.80;99.90;;;;;;5024446;28;20194;-85
2022/12/27 11:18:07;;;;;;;4.45;1.10;;;7.80;99.90;;;;;;5023515;28;20206;-86
2022/12/27 11:20:46;;;;;;;2.42;1.17;;;8.00;99.90;;;;;;5010984;28;20190;-84
2022/12/27 11:23:18;;;;;;;9.70;2.25;;;8.10;99.90;;;;;;5008498;28;20225;-86
2022/12/27 11:25:56;;;;;;;9.35;3.30;;;8.10;99.90;;;;;;5024395;28;20611;-84
2022/12/27 11:28:32;;;;;;;8.35;1.38;;;8.00;99.90;;;;;;5007883;28;20215;-85
2022/12/27 11:31:07;;;;;;;6.72;1.10;;;8.00;99.90;;;;;;5022777;28;20190;-85
2022/12/27 11:33:39;;;;;;;3.05;1.30;;;7.40;99.90;;;;;;5004103;28;20191;-81
2022/12/27 11:36:08;;;;;;;5.03;1.45;;;7.00;99.90;;;;;;4999470;28;20170;-81
2022/12/27 11:38:36;;;;;;;6.97;0.90;;;7.10;99.90;;;;;;5000045;28;20202;-81
2022/12/27 11:41:47;;;;;;;1.63;0.95;;;7.10;99.90;;;;;;4998351;28;20869;-81
2022/12/27 11:44:34;;;;;;;8.55;2.85;;;6.70;99.90;;;;;;4999075;28;20221;-81
2022/12/27 11:47:30;;;;;;;4.72;0.90;;;6.90;99.90;;;;;;5013906;28;20189;-81
2022/12/27 11:50:03;;;;;;;2.75;1.73;;;6.70;99.90;;;;;;5002244;28;20237;-80
2022/12/27 11:52:45;;;;;;;4.97;1.65;;;6.70;99.90;;;;;;4998719;28;20187;-81
2022/12/27 11:55:41;;;;;;;6.88;1.42;;;6.70;99.90;;;;;;5004803;28;20273;-80
2022/12/27 11:58:37;;;;;;;8.95;1.52;;;6.60;99.90;;;;;;5000998;28;20209;-82
2022/12/27 12:01:42;;;;;;;4.53;1.67;;;6.80;99.90;;;;;;5000015;28;20237;-80
2022/12/27 12:04:42;;;;;;;2.28;1.70;;;6.80;99.90;;;;;;5003124;28;20245;-81
2022/12/27 12:07:26;;;;;;;5.05;1.75;;;6.60;99.90;;;;;;5003010;28;20202;-80
2022/12/27 12:10:19;;;;;;;2.20;1.52;;;6.70;99.90;;;;;;5006654;28;20182;-81
2022/12/27 12:12:54;;;;;;;7.25;3.70;;;;;;;;;;5002759;28;20186;-81
2022/12/27 12:15:35;;;;;;;14.13;5.82;;;6.50;99.90;;;;;;4999840;28;20190;-81
2022/12/27 12:18:30;;;;;;;9.88;5.47;;;6.60;99.90;;;;;;4998636;28;20202;-81
2022/12/27 12:21:10;;;;;;;5.88;1.38;;;6.80;99.90;;;;;;4997506;28;20199;-80
2022/12/27 12:24:01;;;;;;;7.78;2.03;;;6.80;99.90;;;;;;5001686;28;20198;-81
2022/12/27 12:26:43;;;;;;;31.55;22.15;;;6.90;99.90;;;;;;5007976;28;20189;-80
2022/12/27 12:29:28;;;;;;;9.25;5.13;;;7.10;99.90;;;;;;5003391;28;20364;-82
2022/12/27 12:32:13;;;;;;;21.65;10.90;;;7.00;99.90;;;;;;5006258;28;20620;-81
2022/12/27 12:35:15;;;;;;;7.13;1.77;;;7.00;99.90;;;;;;5004121;28;20561;-80
2022/12/27 12:38:10;;;;;;;8.38;3.28;;;7.00;99.90;;;;;;4993730;28;20208;-81
2022/12/27 12:40:58;;;;;;;2.42;1.52;;;7.00;99.90;;;;;;5011063;28;20405;-81
2022/12/27 12:43:58;;;;;;;3.55;1.63;;;7.20;99.90;;;;;;5003513;28;20209;-83
2022/12/27 12:46:35;;;;;;;4.88;1.45;;;7.30;99.90;;;;;;4999873;28;20217;-81
2022/12/27 12:49:23;;;;;;;3.03;1.55;;;7.30;99.90;;;;;;5001366;28;20301;-81
2022/12/27 12:51:50;;;;;;;4.13;1.38;;;;;;;;;;4994484;28;20184;-80
2022/12/27 12:54:42;;;;;;;1.33;1.07;;;7.60;99.90;;;;;;5007738;28;20262;-81
2022/12/27 12:57:49;;;;;;;2.13;1.40;;;7.70;99.90;;;;;;5001961;28;20444;-80
2022/12/27 13:00:24;;;;;;;3.53;1.13;;;7.80;99.90;;;;;;5011393;28;20190;-79
2022/12/27 13:03:13;;;;;;;2.35;1.35;;;7.90;99.90;;;;;;5003708;28;20704;-80
2022/12/27 13:05:59;;;;;;;3.03;1.20;;;8.00;99.90;;;;;;5007589;28;20649;-81
2022/12/27 13:08:25;;;;;;;3.10;1.40;;;;;;;;;;5004430;28;20930;-80
2022/12/27 13:11:06;;;;;;;4.40;1.80;;;7.90;99.90;;;;;;5018942;28;20607;-80
2022/12/27 13:13:47;;;;;;;3.72;1.25;;;7.90;99.90;;;;;;5016045;28;20194;-81
2022/12/27 13:16:43;;;;;;;9.30;1.92;;;8.20;99.90;;;;;;5006469;28;20235;-79
2022/12/27 13:19:27;;;;;;;6.80;1.60;;;8.40;99.90;;;;;;5007558;28;20331;-80
2022/12/27 13:22:14;;;;;;;5.00;1.55;;;8.50;99.90;;;;;;5006216;28;20186;-78
2022/12/27 13:25:12;;;;;;;5.13;1.33;;;8.60;99.90;;;;;;5021887;28;20288;-81
2022/12/27 13:28:07;;;;;;;4.03;1.55;;;8.60;99.90;;;;;;4995944;28;20222;-80
2022/12/27 13:30:33;;;;;;;8.38;2.00;;;;;;;;;;5005540;28;20229;-80
2022/12/27 13:33:30;;;;;;;4.97;1.70;;;8.60;99.90;;;;;;5013310;28;20190;-83
2022/12/27 13:36:11;;;;;;;5.18;1.80;;;8.30;99.90;;;;;;5007628;28;20436;-80
2022/12/27 13:38:56;;;;;;;15.98;2.10;;;8.20;99.90;;;;;;5001078;28;20668;-80
2022/12/27 13:41:31;;;;;;;5.32;1.15;;;8.10;99.90;;;;;;5003067;28;20197;-80
2022/12/27 13:44:35;;;;;;;2.70;1.00;;;8.00;99.90;;;;;;5019337;28;20249;-82
2022/12/27 13:47:11;;;;;;;2.17;0.93;;;7.70;99.90;;;;;;5011953;28;20196;-82
2022/12/27 13:50:19;;;;;;;1.48;0.80;;;7.60;99.90;;;;;;5005143;28;20170;-79
2022/12/27 13:52:51;;;;;;;5.47;1.30;;;7.70;99.90;;;;;;5002553;28;20190;-83
2022/12/27 13:55:48;;;;;;;2.67;1.08;;;7.50;99.90;;;;;;4999602;28;20214;-81
2022/12/27 13:58:33;;;;;;;8.20;1.25;;;7.40;99.90;;;;;;4998639;28;20253;-82
2022/12/27 14:01:26;;;;;;;3.80;0.80;;;7.30;99.90;;;;;;4998362;28;20182;-83
2022/12/27 14:04:27;;;;;;;9.23;1.48;;;7.40;99.90;;;;;;5006767;28;20279;-80
2022/12/27 14:07:24;;;;;;;5.50;1.10;;;7.30;99.90;;;;;;4983965;28;20396;-83
2022/12/27 14:10:08;;;;;;;2.50;0.90;;;7.50;99.90;;;;;;4997679;28;20191;-82
2022/12/27 14:12:59;;;;;;;1.65;1.35;;;7.40;99.90;;;;;;5012021;28;20190;-82
2022/12/27 14:16:02;;;;;;;1.73;1.00;;;7.40;99.90;;;;;;5001258;28;20185;-83
2022/12/27 14:18:54;;;;;;;1.98;0.90;;;7.40;99.90;;;;;;4998222;28;20209;-83
2022/12/27 14:21:37;;;;;;;3.15;1.40;;;7.30;99.90;;;;;;5004563;28;20205;-82
2022/12/27 14:24:39;;;;;;;3.28;1.65;;;7.20;99.90;;;;;;4996897;28;20217;-82
2022/12/27 14:27:51;;;;;;;3.22;1.10;;;7.00;99.90;;;;;;4996776;28;20184;-82
2022/12/27 14:30:57;;;;;;;3.05;1.42;;;6.90;99.90;;;;;;4999403;28;20181;-80
2022/12/27 14:33:42;;;;;;;2.55;2.35;;;6.70;99.90;;;;;;4998689;28;20645;-83
2022/12/27 14:36:29;;;;;;;1.73;1.60;;;6.80;99.90;;;;;;5011638;28;20180;-79
2022/12/27 14:39:25;;;;;;;3.28;1.70;;;6.70;99.90;;;;;;5000059;28;20653;-80
2022/12/27 14:42:19;;;;;;;21.30;9.73;;;6.50;99.90;;;;;;4995338;28;20193;-82
2022/12/27 14:45:34;;;;;;;4.25;1.30;;;6.50;99.90;;;;;;4994818;28;20751;-83
2022/12/27 14:48:28;;;;;;;3.40;1.45;;;6.60;99.90;;;;;;4998225;28;22095;-83
2022/12/27 14:51:05;;;;;;;2.67;1.33;;;6.40;99.90;;;;;;4989261;28;20201;-81
2022/12/27 14:54:02;;;;;;;3.45;1.60;;;6.40;99.90;;;;;;5002056;28;21551;-80
2022/12/27 14:56:46;;;;;;;9.63;2.80;;;6.20;99.90;;;;;;4996884;28;20223;-81
2022/12/27 14:59:33;;;;;;;3.20;1.15;;;6.30;99.90;;;;;;4997458;28;21003;-80
2022/12/27 15:02:26;;;;;;;3.35;0.90;;;6.20;99.90;;;;;;5002857;28;20517;-80
2022/12/27 15:05:03;;;;;;;4.03;1.73;;;6.10;99.90;;;;;;4996333;28;20214;-80
2022/12/27 15:07:29;;;;;;;9.73;3.20;;;;;;;;;;4998773;28;20213;-81
2022/12/27 15:10:03;;;;;;;16.40;5.30;;;5.90;99.90;;;;;;4997169;28;20364;-80
2022/12/27 15:12:29;;;;;;;11.25;2.53;;;;;;;;;;4996800;28;21060;-79
2022/12/27 15:15:22;;;;;;;2.70;2.03;;;5.70;99.90;;;;;;5003854;28;20194;-79
2022/12/27 15:18:08;;;;;;;6.30;1.50;;;5.60;99.90;;;;;;4994390;28;20579;-81
2022/12/27 15:21:04;;;;;;;7.05;4.53;;;5.70;99.90;;;;;;4996678;28;20182;-79
2022/12/27 15:23:30;;;;;;;6.22;1.52;;;;;;;;;;4999723;28;20317;-81
2022/12/27 15:26:13;;;;;;;3.30;1.80;;;5.20;99.90;;;;;;4998695;28;20325;-81
2022/12/27 15:29:06;;;;;;;4.00;1.42;;;5.20;99.90;;;;;;4996382;28;20534;-81
2022/12/27 15:32:20;;;;;;;7.43;1.98;;;5.00;99.90;;;;;;4994677;28;20244;-81
2022/12/27 15:35:02;;;;;;;6.03;2.25;;;4.90;99.90;;;;;;4999495;28;20560;-80
2022/12/27 15:37:46;;;;;;;10.77;5.10;;;4.40;99.90;;;;;;5014037;28;20210;-80
2022/12/27 15:40:31;;;;;;;10.98;2.53;;;4.50;99.90;;;;;;4997357;28;20182;-81